createdAt,value
2022-11-16T00:00:10.542Z,97800.13
2022-11-16T00:03:34.923Z,97789.47
2022-11-16T00:06:40.573Z,97784.50
2022-11-16T00:09:43.844Z,97779.31
2022-11-16T00:12:47.612Z,97787.56
2022-11-16T00:15:57.907Z,97781.41
2022-11-16T00:19:06.401Z,97773.84
2022-11-16T00:22:11.137Z,97765.63
2022-11-16T00:25:15.219Z,97772.53
2022-11-16T00:28:19.087Z,97782.38
2022-11-16T00:31:24.413Z,97778.81
2022-11-16T00:34:27.852Z,97776.38
2022-11-16T00:37:33.017Z,97773.34
2022-11-16T00:40:36.324Z,97770.09
2022-11-16T00:43:40.491Z,97774.47
2022-11-16T00:46:44.510Z,97772.84
2022-11-16T00:49:48.384Z,97770.41
2022-11-16T00:52:54.952Z,97779.63
2022-11-16T00:55:59.961Z,97772.03
2022-11-16T00:59:05.608Z,97776.38
2022-11-16T01:02:09.648Z,97767.66
2022-11-16T01:05:15.272Z,97769.28
2022-11-16T01:08:20.627Z,97757.19
2022-11-16T01:11:37.971Z,97758.63
2022-11-16T01:14:45.185Z,97744.91
2022-11-16T01:17:49.358Z,97744.91
2022-11-16T01:20:54.380Z,97742.19
2022-11-16T01:23:59.093Z,97741.56
2022-11-16T01:27:02.924Z,97738.00
2022-11-16T01:30:13.619Z,97738.81
2022-11-16T01:33:23.398Z,97738.00
2022-11-16T01:36:27.570Z,97728.34
2022-11-16T01:39:34.542Z,97723.38
2022-11-16T01:42:39.379Z,97717.38
2022-11-16T01:45:43.429Z,97713.03
2022-11-16T01:48:55.796Z,97703.66
2022-11-16T01:52:05.610Z,97703.66
2022-11-16T01:55:14.224Z,97713.03
2022-11-16T01:58:28.690Z,97704.28
2022-11-16T02:01:38.353Z,97696.38
2022-11-16T02:04:43.256Z,97708.66
2022-11-16T02:08:35.548Z,97706.09
2022-11-16T02:12:09.768Z,97694.94
2022-11-16T02:15:26.394Z,97692.50
2022-11-16T02:18:53.724Z,97692.19
2022-11-16T02:22:15.863Z,97703.16
2022-11-16T02:25:31.861Z,97696.06
2022-11-16T02:28:53.366Z,97687.84
2022-11-16T02:32:10.008Z,97690.91
2022-11-16T02:35:21.687Z,97689.28
2022-11-16T02:38:33.233Z,97687.84
2022-11-16T02:41:43.935Z,97690.59
2022-11-16T02:44:55.436Z,97679.94
2022-11-16T02:48:10.159Z,97659.63
2022-11-16T02:51:15.937Z,97662.97
2022-11-16T02:54:23.765Z,97668.16
2022-11-16T02:57:45.525Z,97657.69
2022-11-16T03:01:01.648Z,97661.34
2022-11-16T03:04:18.459Z,97663.28
2022-11-16T03:07:30.563Z,97664.75
2022-11-16T03:10:57.860Z,97647.50
2022-11-16T03:14:08.989Z,97648.63
2022-11-16T03:17:23.019Z,97642.31
2022-11-16T03:20:33.283Z,97648.94
2022-11-16T03:23:37.026Z,97653.09
2022-11-16T03:26:51.947Z,97648.13
2022-11-16T03:30:06.198Z,97654.22
2022-11-16T03:33:20.569Z,97655.34
2022-11-16T03:36:33.623Z,97656.16
2022-11-16T03:39:40.537Z,97653.72
2022-11-16T03:42:49.463Z,97654.84
2022-11-16T03:45:53.282Z,97643.38
2022-11-16T03:49:01.840Z,97643.88
2022-11-16T03:52:10.398Z,97639.03
2022-11-16T03:55:13.843Z,97632.75
2022-11-16T03:58:19.446Z,97632.75
2022-11-16T04:01:23.566Z,97626.47
2022-11-16T04:04:44.616Z,97625.66
2022-11-16T04:08:08.062Z,97620.50
2022-11-16T04:11:32.584Z,97627.09
2022-11-16T04:14:54.396Z,97614.00
2022-11-16T04:18:16.410Z,97629.66
2022-11-16T04:21:44.565Z,97622.22
2022-11-16T04:24:55.872Z,97614.31
2022-11-16T04:28:16.456Z,97620.44
2022-11-16T04:31:42.881Z,97625.09
2022-11-16T04:35:05.911Z,97623.47
2022-11-16T04:38:09.215Z,97617.19
2022-11-16T04:41:28.982Z,97611.09
2022-11-16T04:44:54.263Z,97622.03
2022-11-16T04:48:00.169Z,97617.53
2022-11-16T04:51:07.558Z,97608.19
2022-11-16T04:54:12.032Z,97602.38
2022-11-16T04:57:16.862Z,97609.16
2022-11-16T05:00:22.713Z,97616.88
2022-11-16T05:03:26.622Z,97602.72
2022-11-16T05:06:30.090Z,97600.44
2022-11-16T05:09:33.181Z,97603.19
2022-11-16T05:12:38.879Z,97604.78
2022-11-16T05:15:46.492Z,97607.84
2022-11-16T05:19:10.344Z,97603.81
2022-11-16T05:22:13.089Z,97593.50
2022-11-16T05:25:17.181Z,97599.78
2022-11-16T05:28:21.631Z,97595.09
2022-11-16T05:31:25.404Z,97600.09
2022-11-16T05:34:29.347Z,97596.53
2022-11-16T05:37:32.944Z,97608.63
2022-11-16T05:40:35.968Z,97609.75
2022-11-16T05:43:41.062Z,97608.31
2022-11-16T05:46:50.613Z,97613.28
2022-11-16T05:49:55.531Z,97604.25
2022-11-16T05:53:00.803Z,97594.91
2022-11-16T05:56:04.869Z,97591.06
2022-11-16T05:59:16.584Z,97593.50
2022-11-16T06:02:21.208Z,97594.09
2022-11-16T06:05:24.893Z,97585.88
2022-11-16T06:08:29.281Z,97584.78
2022-11-16T06:11:37.542Z,97583.16
2022-11-16T06:14:43.671Z,97588.31
2022-11-16T06:17:46.854Z,97576.06
2022-11-16T06:20:50.461Z,97587.50
2022-11-16T06:23:56.262Z,97587.19
2022-11-16T06:26:59.897Z,97579.47
2022-11-16T06:30:06.156Z,97586.72
2022-11-16T06:33:10.104Z,97578.50
2022-11-16T06:36:14.494Z,97582.88
2022-11-16T06:39:18.165Z,97576.75
2022-11-16T06:42:22.948Z,97575.97
2022-11-16T06:45:28.485Z,97577.75
2022-11-16T06:48:34.768Z,97577.13
2022-11-16T06:51:41.226Z,97570.38
2022-11-16T06:54:45.014Z,97567.66
2022-11-16T06:57:48.864Z,97571.75
2022-11-16T07:00:53.979Z,97565.47
2022-11-16T07:03:57.946Z,97560.63
2022-11-16T07:07:01.459Z,97564.00
2022-11-16T07:10:06.081Z,97562.22
2022-11-16T07:13:09.027Z,97561.72
2022-11-16T07:16:16.647Z,97566.72
2022-11-16T07:19:26.665Z,97571.19
2022-11-16T07:22:30.386Z,97560.25
2022-11-16T07:25:35.082Z,97566.06
2022-11-16T07:28:45.037Z,97555.88
2022-11-16T07:31:53.830Z,97556.88
2022-11-16T07:35:12.643Z,97560.09
2022-11-16T07:38:18.181Z,97552.38
2022-11-16T07:41:22.619Z,97550.44
2022-11-16T07:44:35.831Z,97559.47
2022-11-16T07:47:47.954Z,97554.81
2022-11-16T07:51:02.964Z,97554.00
2022-11-16T07:54:08.267Z,97542.84
2022-11-16T07:57:11.624Z,97538.66
2022-11-16T08:00:19.128Z,97541.59
2022-11-16T08:03:32.122Z,97532.56
2022-11-16T08:06:35.843Z,97531.25
2022-11-16T08:09:40.890Z,97533.19
2022-11-16T08:12:48.188Z,97526.41
2022-11-16T08:15:53.590Z,97534.63
2022-11-16T08:18:59.263Z,97535.13
2022-11-16T08:22:02.640Z,97526.56
2022-11-16T08:25:09.481Z,97523.19
2022-11-16T08:28:14.632Z,97530.75
2022-11-16T08:31:24.808Z,97539.66
2022-11-16T08:34:35.353Z,97535.16
2022-11-16T08:37:40.791Z,97537.56
2022-11-16T08:40:46.765Z,97534.53
2022-11-16T08:43:53.246Z,97542.94
2022-11-16T08:46:58.327Z,97535.53
2022-11-16T08:50:11.434Z,97535.69
2022-11-16T08:53:15.527Z,97524.72
2022-11-16T08:56:20.284Z,97534.88
2022-11-16T08:59:23.956Z,97536.81
2022-11-16T09:02:31.594Z,97545.03
2022-11-16T09:05:36.462Z,97539.56
2022-11-16T09:08:43.929Z,97536.19
2022-11-16T09:11:47.404Z,97537.44
2022-11-16T09:14:51.055Z,97549.09
2022-11-16T09:17:55.057Z,97545.72
2022-11-16T09:21:00.465Z,97545.09
2022-11-16T09:24:04.022Z,97536.84
2022-11-16T09:27:07.844Z,97538.94
2022-11-16T09:30:12.773Z,97537.47
2022-11-16T09:33:16.861Z,97540.53
2022-11-16T09:36:21.607Z,97531.19
2022-11-16T09:39:31.040Z,97542.00
2022-11-16T09:42:58.524Z,97538.59
2022-11-16T09:46:21.724Z,97530.25
2022-11-16T09:49:29.985Z,97534.75
2022-11-16T09:52:42.688Z,97524.25
2022-11-16T09:55:52.060Z,97527.00
2022-11-16T09:59:05.073Z,97524.25
2022-11-16T10:02:25.050Z,97524.75
2022-11-16T10:05:38.489Z,97524.41
2022-11-16T10:08:47.894Z,97523.91
2022-11-16T10:12:11.415Z,97530.84
2022-11-16T10:15:43.212Z,97526.84
2022-11-16T10:18:59.187Z,97516.50
2022-11-16T10:22:22.715Z,97515.19
2022-11-16T10:25:43.522Z,97505.66
2022-11-16T10:29:14.952Z,97504.84
2022-11-16T10:32:28.240Z,97506.94
2022-11-16T10:35:40.335Z,97503.69
2022-11-16T10:38:45.559Z,97501.59
2022-11-16T10:41:51.478Z,97499.66
2022-11-16T10:45:07.539Z,97497.72
2022-11-16T10:48:32.505Z,97499.66
2022-11-16T10:51:36.497Z,97499.78
2022-11-16T10:54:44.052Z,97502.22
2022-11-16T10:58:02.020Z,97497.72
2022-11-16T11:01:12.259Z,97487.69
2022-11-16T11:04:25.087Z,97490.13
2022-11-16T11:07:33.677Z,97489.16
2022-11-16T11:10:40.294Z,97482.06
2022-11-16T11:13:45.119Z,97488.38
2022-11-16T11:16:53.953Z,97487.22
2022-11-16T11:20:00.857Z,97493.03
2022-11-16T11:23:15.170Z,97478.84
2022-11-16T11:26:36.899Z,97474.31
2022-11-16T11:29:44.106Z,97478.34
2022-11-16T11:32:49.579Z,97482.22
2022-11-16T11:36:08.485Z,97472.22
2022-11-16T11:39:31.742Z,97477.22
2022-11-16T11:42:35.760Z,97481.53
2022-11-16T11:45:50.211Z,97476.72
2022-11-16T11:49:05.903Z,97480.91
2022-11-16T11:52:19.011Z,97475.75
2022-11-16T11:55:22.909Z,97475.25
2022-11-16T11:58:32.870Z,97473.00
2022-11-16T12:02:06.407Z,97475.91
2022-11-16T12:05:48.114Z,97470.25
2022-11-16T12:09:14.654Z,97468.97
2022-11-16T12:12:42.207Z,97465.41
2022-11-16T12:16:08.853Z,97459.94
2022-11-16T12:19:56.386Z,97457.19
2022-11-16T12:23:32.893Z,97455.59
2022-11-16T12:26:55.450Z,97450.75
2022-11-16T12:30:11.455Z,97458.97
2022-11-16T12:33:36.848Z,97456.72
2022-11-16T12:37:01.032Z,97459.47
2022-11-16T12:40:33.023Z,97458.00
2022-11-16T12:43:49.418Z,97450.75
2022-11-16T12:47:05.556Z,97451.56
2022-11-16T12:50:33.548Z,97452.88
2022-11-16T12:54:11.216Z,97445.75
2022-11-16T12:57:26.058Z,97450.75
2022-11-16T13:00:39.725Z,97449.47
2022-11-16T13:03:53.744Z,97435.78
2022-11-16T13:07:10.919Z,97434.31
2022-11-16T13:10:22.724Z,97427.38
2022-11-16T13:13:36.453Z,97426.75
2022-11-16T13:16:41.704Z,97427.72
2022-11-16T13:20:15.495Z,97422.91
2022-11-16T13:23:44.405Z,97421.44
2022-11-16T13:27:00.090Z,97418.88
2022-11-16T13:30:17.395Z,97422.91
2022-11-16T13:33:34.875Z,97419.50
2022-11-16T13:36:47.724Z,97418.72
2022-11-16T13:40:15.042Z,97411.94
2022-11-16T13:43:23.024Z,97413.88
2022-11-16T13:46:58.948Z,97407.88
2022-11-16T13:50:06.740Z,97421.09
2022-11-16T13:56:52.584Z,97409.16
2022-11-16T14:00:12.625Z,97414.00
2022-11-16T14:03:39.370Z,97408.84
2022-11-16T14:07:00.762Z,97395.78
2022-11-16T14:10:08.079Z,97396.25
2022-11-16T14:13:40.739Z,97409.00
2022-11-16T14:16:51.381Z,97401.25
2022-11-16T14:19:56.025Z,97403.53
2022-11-16T14:23:17.318Z,97412.69
2022-11-16T14:26:34.112Z,97410.13
2022-11-16T14:29:53.995Z,97415.63
2022-11-16T14:33:00.035Z,97406.09
2022-11-16T14:36:09.429Z,97409.16
2022-11-16T14:39:30.808Z,97404.97
2022-11-16T14:43:01.837Z,97418.50
2022-11-16T14:46:22.023Z,97413.66
2022-11-16T14:49:30.203Z,97405.44
2022-11-16T14:52:41.208Z,97402.69
2022-11-16T14:55:46.245Z,97414.28
2022-11-16T14:58:55.961Z,97414.78
2022-11-16T15:02:08.995Z,97421.38
2022-11-16T15:05:18.951Z,97421.38
2022-11-16T15:08:31.961Z,97418.97
2022-11-16T15:11:58.557Z,97414.63
2022-11-16T15:15:08.493Z,97424.28
2022-11-16T15:18:18.243Z,97418.81
2022-11-16T15:21:25.328Z,97414.94
2022-11-16T15:24:32.347Z,97413.31
2022-11-16T15:27:41.099Z,97412.53
2022-11-16T15:30:49.836Z,97408.97
2022-11-16T15:33:53.863Z,97409.28
2022-11-16T15:36:58.924Z,97421.88
2022-11-16T15:40:03.531Z,97424.91
2022-11-16T15:43:09.004Z,97424.13
2022-11-16T15:46:15.878Z,97431.53
2022-11-16T15:49:30.399Z,97421.06
2022-11-16T15:52:55.467Z,97434.75
2022-11-16T15:55:59.014Z,97436.03
2022-11-16T15:59:14.269Z,97441.38
2022-11-16T16:02:23.173Z,97435.72
2022-11-16T16:05:36.746Z,97443.28
2022-11-16T16:08:41.962Z,97440.38
2022-11-16T16:11:45.477Z,97434.41
2022-11-16T16:14:50.748Z,97436.03
2022-11-16T16:17:55.922Z,97444.25
2022-11-16T16:21:00.176Z,97435.56
2022-11-16T16:24:05.234Z,97432.47
2022-11-16T16:27:19.189Z,97432.97
2022-11-16T16:30:22.979Z,97438.63
2022-11-16T16:33:28.801Z,97421.38
2022-11-16T16:36:32.282Z,97432.31
2022-11-16T16:39:38.797Z,97432.81
2022-11-16T16:42:42.957Z,97435.06
2022-11-16T16:45:46.528Z,97434.25
2022-11-16T16:48:50.135Z,97437.81
2022-11-16T16:51:54.586Z,97426.84
2022-11-16T16:54:59.629Z,97433.44
2022-11-16T16:58:03.183Z,97438.44
2022-11-16T17:01:07.217Z,97437.31
2022-11-16T17:04:10.561Z,97436.19
2022-11-16T17:07:14.532Z,97441.66
2022-11-16T17:10:19.516Z,97447.16
2022-11-16T17:13:23.263Z,97450.84
2022-11-16T17:16:27.156Z,97449.22
2022-11-16T17:19:31.483Z,97456.50
2022-11-16T17:22:35.714Z,97452.00
2022-11-16T17:25:40.755Z,97458.94
2022-11-16T17:28:44.374Z,97461.03
2022-11-16T17:31:48.843Z,97463.47
2022-11-16T17:34:52.334Z,97462.03
2022-11-16T17:37:55.986Z,97463.63
2022-11-16T17:41:06.920Z,97461.53
2022-11-16T17:44:10.888Z,97462.19
2022-11-16T17:47:14.734Z,97454.75
2022-11-16T17:50:18.689Z,97455.88
2022-11-16T17:53:22.231Z,97462.19
2022-11-16T17:56:29.151Z,97465.09
2022-11-16T17:59:32.925Z,97475.56
2022-11-16T18:02:36.863Z,97470.72
2022-11-16T18:05:40.223Z,97474.13
2022-11-16T18:08:45.111Z,97481.53
2022-11-16T18:11:51.526Z,97467.81
2022-11-16T18:15:26.350Z,97472.31
2022-11-16T18:18:18.815Z,97471.00
2022-11-16T18:21:23.000Z,97463.09
2022-11-16T18:24:26.375Z,97460.69
2022-11-16T18:27:31.535Z,97465.03
2022-11-16T18:30:35.047Z,97461.00
2022-11-16T18:33:40.005Z,97462.97
2022-11-16T18:36:43.255Z,97452.31
2022-11-16T18:39:46.857Z,97463.59
2022-11-16T18:42:52.334Z,97453.44
2022-11-16T18:45:55.886Z,97454.38
2022-11-16T18:49:00.818Z,97456.00
2022-11-16T18:52:04.899Z,97452.13
2022-11-16T18:55:09.273Z,97446.34
2022-11-16T18:58:43.386Z,97443.78
2022-11-16T19:01:38.405Z,97448.75
2022-11-16T19:04:42.718Z,97447.16
2022-11-16T19:07:46.979Z,97439.44
2022-11-16T19:10:50.698Z,97442.63
2022-11-16T19:14:00.949Z,97441.69
2022-11-16T19:17:05.306Z,97447.78
2022-11-16T19:20:10.773Z,97448.28
2022-11-16T19:23:14.435Z,97438.75
2022-11-16T19:26:24.109Z,97441.19
2022-11-16T19:29:29.432Z,97438.75
2022-11-16T19:32:33.469Z,97435.56
2022-11-16T19:35:38.390Z,97442.16
2022-11-16T19:38:42.637Z,97438.13
2022-11-16T19:41:46.403Z,97438.25
2022-11-16T19:44:51.177Z,97441.81
2022-11-16T19:47:57.263Z,97434.72
2022-11-16T19:51:06.624Z,97447.91
2022-11-16T19:54:13.853Z,97450.66
2022-11-16T19:57:20.468Z,97459.06
2022-11-16T20:00:25.857Z,97456.50
2022-11-16T20:03:29.252Z,97459.72
2022-11-16T20:06:35.926Z,97454.25
2022-11-16T20:09:39.433Z,97448.59
2022-11-16T20:12:43.572Z,97455.50
2022-11-16T20:15:48.307Z,97460.19
2022-11-16T20:18:53.869Z,97449.03
2022-11-16T20:21:59.469Z,97461.47
2022-11-16T20:25:03.115Z,97464.50
2022-11-16T20:28:06.359Z,97467.56
2022-11-16T20:31:16.092Z,97461.78
2022-11-16T20:34:21.986Z,97448.06
2022-11-16T20:37:25.633Z,97447.25
2022-11-16T20:40:28.914Z,97449.69
2022-11-16T20:43:32.576Z,97454.38
2022-11-16T20:46:38.436Z,97442.28
2022-11-16T20:49:42.381Z,97441.28
2022-11-16T20:52:51.421Z,97430.34
2022-11-16T20:55:57.526Z,97439.38
2022-11-16T20:59:01.608Z,97437.75
2022-11-16T21:02:06.777Z,97440.47
2022-11-16T21:05:10.859Z,97442.59
2022-11-16T21:08:14.972Z,97428.59
2022-11-16T21:11:20.991Z,97432.59
2022-11-16T21:14:23.886Z,97445.19
2022-11-16T21:17:28.435Z,97447.09
2022-11-16T21:20:32.171Z,97443.91
2022-11-16T21:23:37.588Z,97449.22
2022-11-16T21:26:41.493Z,97442.75
2022-11-16T21:29:45.014Z,97450.19
2022-11-16T21:32:50.448Z,97456.78
2022-11-16T21:35:55.016Z,97453.56
2022-11-16T21:38:59.705Z,97450.31
2022-11-16T21:42:03.347Z,97447.09
2022-11-16T21:45:10.491Z,97448.69
2022-11-16T21:48:15.773Z,97445.66
2022-11-16T21:51:21.633Z,97444.03
2022-11-16T21:54:45.203Z,97440.00
2022-11-16T21:57:49.455Z,97435.13
2022-11-16T22:00:55.936Z,97444.34
2022-11-16T22:04:18.415Z,97457.22
2022-11-16T22:07:33.844Z,97465.75
2022-11-16T22:10:37.667Z,97464.81
2022-11-16T22:13:42.470Z,97473.81
2022-11-16T22:16:46.613Z,97464.81
2022-11-16T22:19:51.471Z,97466.88
2022-11-16T22:22:54.906Z,97462.84
2022-11-16T22:26:03.910Z,97464.66
2022-11-16T22:29:07.822Z,97461.41
2022-11-16T22:32:11.935Z,97456.44
2022-11-16T22:35:17.205Z,97458.03
2022-11-16T22:38:20.420Z,97458.97
2022-11-16T22:41:24.099Z,97460.72
2022-11-16T22:44:27.322Z,97458.31
2022-11-16T22:47:30.833Z,97453.44
2022-11-16T22:50:35.624Z,97455.88
2022-11-16T22:53:39.363Z,97451.34
2022-11-16T22:56:43.432Z,97452.78
2022-11-16T22:59:47.154Z,97449.22
2022-11-16T23:02:50.498Z,97453.91
2022-11-16T23:05:55.440Z,97453.91
2022-11-16T23:08:58.783Z,97449.06
2022-11-16T23:12:20.267Z,97443.41
2022-11-16T23:15:41.202Z,97438.56
2022-11-16T23:18:44.870Z,97436.94
2022-11-16T23:22:06.986Z,97430.03
2022-11-16T23:25:30.680Z,97428.09
2022-11-16T23:28:36.673Z,97441.16
2022-11-16T23:31:40.285Z,97420.38
2022-11-16T23:34:43.460Z,97409.94
2022-11-16T23:37:57.241Z,97421.22
2022-11-16T23:41:20.745Z,97420.25
2022-11-16T23:44:23.541Z,97429.28
2022-11-16T23:47:27.194Z,97422.66
2022-11-16T23:50:31.083Z,97422.66
2022-11-16T23:53:36.195Z,97422.03
2022-11-16T23:56:40.171Z,97431.66
2022-11-16T23:59:43.409Z,97432.00
